createdAt,value
2019-03-10T10:07:18.230Z,1648.00
2019-03-10T10:08:18.174Z,1708.00
2019-03-10T10:09:18.114Z,1828.00
2019-03-10T10:10:18.127Z,1924.00
2019-03-10T10:11:18.165Z,2024.00
2019-03-10T10:12:18.214Z,1924.00
2019-03-10T10:13:18.071Z,1664.00
2019-03-10T10:14:18.017Z,1476.00
2019-03-10T10:15:18.017Z,1368.00
2019-03-10T10:16:17.986Z,1392.00
2019-03-10T10:17:17.998Z,1448.00
2019-03-10T10:18:17.986Z,1460.00
2019-03-10T10:19:17.948Z,1408.00
2019-03-10T10:20:17.942Z,1212.00
2019-03-10T10:21:17.924Z,976.00
2019-03-10T10:22:17.921Z,804.00
2019-03-10T10:23:17.953Z,740.00
2019-03-10T10:24:17.890Z,748.00
2019-03-10T10:25:17.882Z,796.00
2019-03-10T10:26:17.868Z,792.00
2019-03-10T10:27:20.088Z,860.00
2019-03-10T10:28:17.875Z,1120.00
2019-03-10T10:29:17.865Z,1376.00
2019-03-10T10:30:17.825Z,1400.00
2019-03-10T10:31:17.817Z,1180.00
2019-03-10T10:32:17.808Z,988.00
2019-03-10T10:33:17.804Z,848.00
2019-03-10T10:34:17.805Z,800.00
2019-03-10T10:35:17.806Z,880.00
2019-03-10T10:36:17.766Z,1008.00
2019-03-10T10:37:17.751Z,1092.00
2019-03-10T10:38:18.986Z,1156.00
2019-03-10T10:39:17.734Z,1256.00
2019-03-10T10:40:17.726Z,1352.00
2019-03-10T10:41:17.743Z,1332.00
2019-03-10T10:42:17.697Z,1288.00
2019-03-10T10:43:17.686Z,1180.00
2019-03-10T10:44:17.670Z,1088.00
2019-03-10T10:45:17.702Z,1092.00
2019-03-10T10:46:17.651Z,1184.00
2019-03-10T10:47:17.679Z,1244.00
2019-03-10T10:48:17.630Z,1328.00
2019-03-10T10:49:17.609Z,1356.00
2019-03-10T10:50:17.605Z,1312.00
2019-03-10T10:51:17.617Z,1316.00
2019-03-10T10:52:17.619Z,1188.00
2019-03-10T10:53:17.607Z,1064.00
2019-03-10T10:54:17.564Z,1008.00
2019-03-10T10:55:17.552Z,1196.00
2019-03-10T10:56:17.552Z,1428.00
2019-03-10T10:57:17.548Z,1648.00
2019-03-10T10:58:17.519Z,1652.00
2019-03-10T10:59:17.517Z,1664.00
2019-03-10T11:00:17.487Z,1656.00
2019-03-10T11:01:17.477Z,1648.00
2019-03-10T11:02:17.525Z,1564.00
2019-03-10T11:03:17.451Z,1332.00
2019-03-10T11:04:17.446Z,1216.00
2019-03-10T11:05:17.451Z,1080.00
2019-03-10T11:06:19.685Z,1280.00
2019-03-10T11:07:17.413Z,1368.00
2019-03-10T11:08:17.422Z,1400.00
2019-03-10T11:09:17.383Z,1404.00
2019-03-10T11:10:17.378Z,1344.00
2019-03-10T11:11:17.384Z,1284.00
2019-03-10T11:12:17.353Z,1484.00
2019-03-10T11:13:17.487Z,1812.00
2019-03-10T11:14:17.341Z,1904.00
2019-03-10T11:15:17.325Z,1668.00
2019-03-10T11:16:17.314Z,1728.00
2019-03-10T11:17:17.312Z,1740.00
2019-03-10T11:18:17.288Z,1688.00
2019-03-10T11:19:17.327Z,1544.00
2019-03-10T11:20:17.271Z,1392.00
2019-03-10T11:21:17.254Z,1172.00
2019-03-10T11:22:17.253Z,1248.00
2019-03-10T11:23:17.252Z,1140.00
2019-03-10T11:24:17.224Z,928.00
2019-03-10T11:25:17.227Z,776.00
2019-03-10T11:26:17.201Z,772.00
2019-03-10T11:27:17.197Z,920.00
2019-03-10T11:28:17.191Z,972.00
2019-03-10T11:29:17.184Z,944.00
2019-03-10T11:30:17.199Z,988.00
2019-03-10T11:31:17.152Z,1056.00
2019-03-10T11:32:17.131Z,872.00
2019-03-10T11:33:17.130Z,712.00
2019-03-10T11:34:17.111Z,780.00
2019-03-10T11:35:17.133Z,988.00
2019-03-10T11:36:17.112Z,1008.00
2019-03-10T11:37:17.080Z,868.00
2019-03-10T11:38:17.064Z,772.00
2019-03-10T11:39:17.057Z,764.00
2019-03-10T11:40:17.043Z,732.00
2019-03-10T11:41:17.038Z,728.00
2019-03-10T11:42:17.077Z,736.00
2019-03-10T11:43:17.011Z,732.00
2019-03-10T11:44:17.003Z,820.00
2019-03-10T11:45:16.985Z,972.00
2019-03-10T11:46:16.977Z,1020.00
2019-03-10T11:47:17.013Z,976.00
2019-03-10T11:48:16.989Z,876.00
2019-03-10T11:49:16.949Z,780.00
2019-03-10T11:50:16.929Z,772.00
2019-03-10T11:51:16.922Z,772.00
2019-03-10T11:52:16.914Z,840.00
2019-03-10T11:53:19.347Z,1032.00
2019-03-10T11:54:16.902Z,1104.00
2019-03-10T11:55:16.977Z,1164.00
2019-03-10T11:56:16.862Z,1140.00
2019-03-10T11:57:16.858Z,1372.00
2019-03-10T11:58:16.855Z,1588.00
2019-03-10T11:59:16.971Z,1748.00
2019-03-10T12:00:16.829Z,1852.00
2019-03-10T12:01:16.815Z,2208.00
2019-03-10T12:02:16.849Z,2624.00
2019-03-10T12:03:16.800Z,2796.00
2019-03-10T12:04:16.810Z,2840.00
2019-03-10T12:05:16.772Z,2848.00
2019-03-10T12:06:16.745Z,2240.00
2019-03-10T12:07:16.761Z,2024.00
2019-03-10T12:08:16.727Z,1696.00
2019-03-10T12:09:16.740Z,1616.00
2019-03-10T12:10:16.789Z,1524.00
2019-03-10T12:11:16.705Z,1468.00
2019-03-10T12:12:16.682Z,1372.00
2019-03-10T12:13:16.675Z,1308.00
2019-03-10T12:14:16.671Z,1148.00
2019-03-10T12:15:16.679Z,1032.00
2019-03-10T12:16:16.653Z,1252.00
2019-03-10T12:17:16.664Z,1532.00
2019-03-10T12:18:16.617Z,1392.00
2019-03-10T12:19:16.611Z,1716.00
2019-03-10T12:20:16.626Z,1752.00
2019-03-10T12:21:16.582Z,1656.00
2019-03-10T12:22:16.580Z,1600.00
2019-03-10T12:23:16.566Z,1324.00
2019-03-10T12:24:16.581Z,1068.00
2019-03-10T12:25:16.535Z,840.00
2019-03-10T12:26:16.552Z,808.00
2019-03-10T12:27:16.513Z,800.00
2019-03-10T12:28:16.532Z,716.00
2019-03-10T12:29:16.492Z,648.00
2019-03-10T12:30:16.493Z,648.00
2019-03-10T12:31:16.525Z,624.00
2019-03-10T12:32:16.523Z,628.00
2019-03-10T12:33:16.458Z,588.00
2019-03-10T12:34:16.446Z,456.00
2019-03-10T12:35:16.420Z,484.00
2019-03-10T12:36:16.411Z,552.00
2019-03-10T12:37:16.430Z,676.00
2019-03-10T12:38:16.413Z,776.00
2019-03-10T12:39:17.293Z,968.00
2019-03-10T12:40:16.372Z,1204.00
2019-03-10T12:41:16.356Z,1728.00
2019-03-10T12:42:16.350Z,1832.00
2019-03-10T12:43:16.417Z,2096.00
2019-03-10T12:44:16.347Z,2068.00
2019-03-10T12:45:16.313Z,1912.00
2019-03-10T12:46:16.299Z,1628.00
2019-03-10T12:47:16.286Z,1392.00
2019-03-10T12:48:16.282Z,1236.00
2019-03-10T12:49:16.282Z,1200.00
2019-03-10T12:50:18.737Z,1380.00
2019-03-10T12:51:16.237Z,1572.00
2019-03-10T12:52:16.237Z,1584.00
2019-03-10T12:53:16.224Z,1668.00
2019-03-10T12:54:16.202Z,1544.00
2019-03-10T12:55:16.281Z,1360.00
2019-03-10T12:56:16.258Z,1388.00
2019-03-10T12:57:16.182Z,1228.00
2019-03-10T12:58:16.160Z,1092.00
2019-03-10T12:59:16.152Z,992.00
2019-03-10T13:00:16.144Z,1152.00
2019-03-10T13:01:16.146Z,1152.00
2019-03-10T13:02:16.133Z,1388.00
2019-03-10T13:03:16.109Z,1520.00
2019-03-10T13:04:16.105Z,1704.00
2019-03-10T13:05:16.076Z,1752.00
2019-03-10T13:06:16.074Z,1452.00
2019-03-10T13:07:16.107Z,1404.00
2019-03-10T13:08:16.059Z,1340.00
2019-03-10T13:09:16.045Z,1340.00
2019-03-10T13:10:16.026Z,1352.00
2019-03-10T13:11:16.018Z,1244.00
2019-03-10T13:12:16.025Z,1120.00
2019-03-10T13:13:16.046Z,1076.00
2019-03-10T13:14:15.987Z,1148.00
2019-03-10T13:15:15.984Z,1264.00
2019-03-10T13:16:15.973Z,1768.00
2019-03-10T13:17:15.955Z,2084.00
2019-03-10T13:18:15.966Z,1908.00
2019-03-10T13:19:15.935Z,1856.00
2019-03-10T13:20:15.937Z,1832.00
2019-03-10T13:21:15.901Z,1384.00
2019-03-10T13:22:15.901Z,1628.00
2019-03-10T13:23:15.892Z,2172.00
2019-03-10T13:24:15.902Z,2552.00
2019-03-10T13:25:15.870Z,2368.00
2019-03-10T13:26:15.876Z,2112.00
2019-03-10T13:27:15.833Z,1820.00
2019-03-10T13:28:15.829Z,1512.00
2019-03-10T13:29:15.816Z,1368.00
2019-03-10T13:30:15.837Z,1248.00
2019-03-10T13:31:15.801Z,1224.00
2019-03-10T13:32:15.813Z,1240.00
2019-03-10T13:33:15.761Z,1296.00
2019-03-10T13:34:15.758Z,1376.00
2019-03-10T13:35:15.788Z,1340.00
2019-03-10T13:36:15.735Z,1528.00
2019-03-10T13:37:15.723Z,1580.00
2019-03-10T13:38:15.735Z,1596.00
2019-03-10T13:39:15.704Z,1448.00
2019-03-10T13:40:15.696Z,1540.00
2019-03-10T13:41:15.695Z,1464.00
2019-03-10T13:42:15.691Z,1440.00
2019-03-10T13:43:15.660Z,1384.00
2019-03-10T13:44:15.698Z,1200.00
2019-03-10T13:45:15.632Z,1048.00
2019-03-10T13:46:15.643Z,920.00
2019-03-10T13:47:15.623Z,876.00
2019-03-10T13:48:15.601Z,788.00
2019-03-10T13:49:15.585Z,700.00
2019-03-10T13:50:15.568Z,612.00
2019-03-10T13:51:15.566Z,592.00
2019-03-10T13:52:15.630Z,624.00
2019-03-10T13:53:15.539Z,628.00
2019-03-10T13:54:15.533Z,692.00
2019-03-10T13:55:15.517Z,644.00
2019-03-10T13:56:15.509Z,540.00
2019-03-10T13:57:15.554Z,480.00
2019-03-10T13:58:15.514Z,536.00
2019-03-10T13:59:15.483Z,680.00
2019-03-10T14:00:15.464Z,940.00
2019-03-10T14:01:15.451Z,1080.00
2019-03-10T14:02:15.443Z,896.00
2019-03-10T14:03:15.454Z,628.00
2019-03-10T14:04:15.427Z,544.00
2019-03-10T14:05:15.406Z,524.00
2019-03-10T14:06:15.393Z,480.00
2019-03-10T14:07:15.390Z,468.00
2019-03-10T14:08:15.412Z,444.00
2019-03-10T14:09:15.349Z,432.00
2019-03-10T14:10:15.384Z,448.00
2019-03-10T14:11:15.332Z,440.00
2019-03-10T14:12:15.320Z,428.00
2019-03-10T14:13:15.313Z,416.00
2019-03-10T14:14:15.307Z,384.00
2019-03-10T14:15:15.290Z,312.00
2019-03-10T14:16:15.305Z,284.00
2019-03-10T14:17:15.269Z,360.00
2019-03-10T14:18:15.247Z,356.00
2019-03-10T14:19:15.275Z,360.00
2019-03-10T14:20:15.236Z,352.00
2019-03-10T14:21:15.217Z,400.00
2019-03-10T14:22:15.231Z,484.00
2019-03-10T14:23:15.200Z,568.00
2019-03-10T14:24:15.188Z,820.00
2019-03-10T14:25:15.187Z,1048.00
2019-03-10T14:26:15.162Z,1136.00
2019-03-10T14:27:15.150Z,1040.00
2019-03-10T14:28:15.944Z,856.00
2019-03-10T14:29:15.127Z,848.00
2019-03-10T14:30:15.132Z,856.00
2019-03-10T14:31:15.111Z,900.00
2019-03-10T14:32:15.101Z,1060.00
2019-03-10T14:33:15.092Z,972.00
2019-03-10T14:34:15.097Z,876.00
2019-03-10T14:35:15.107Z,792.00
2019-03-10T14:36:15.043Z,712.00
2019-03-10T14:37:15.043Z,560.00
2019-03-10T14:38:15.031Z,456.00
2019-03-10T14:39:15.017Z,812.00
2019-03-10T14:40:15.032Z,1776.00
2019-03-10T14:41:15.020Z,4092.00
2019-03-10T14:42:14.983Z,3348.00
2019-03-10T14:43:14.969Z,3124.00
2019-03-10T14:44:14.961Z,2476.00
2019-03-10T14:45:14.959Z,2024.00
2019-03-10T14:46:14.959Z,2012.00
2019-03-10T14:47:14.952Z,2104.00
2019-03-10T14:48:14.918Z,4196.00
2019-03-10T14:49:22.629Z,4208.00
2019-03-10T14:50:15.892Z,2460.00
2019-03-10T14:51:14.884Z,1948.00
2019-03-10T14:52:14.898Z,1632.00
2019-03-10T14:53:14.863Z,1388.00
2019-03-10T14:54:14.840Z,1448.00
2019-03-10T14:55:14.852Z,1496.00
2019-03-10T14:56:14.818Z,1936.00
2019-03-10T14:57:14.838Z,3324.00
2019-03-10T14:58:14.827Z,6396.00
2019-03-10T14:59:14.783Z,6272.00
2019-03-10T15:00:14.779Z,5380.00
2019-03-10T15:01:14.772Z,3404.00
2019-03-10T15:02:14.751Z,3740.00
2019-03-10T15:03:14.767Z,5708.00
2019-03-10T15:04:14.759Z,5500.00
2019-03-10T15:05:14.717Z,3380.00
2019-03-10T15:06:14.716Z,5556.00
2019-03-10T15:07:14.701Z,2032.00
2019-03-10T15:08:14.707Z,1832.00
2019-03-10T15:09:14.742Z,1528.00
2019-03-10T15:10:14.687Z,1424.00
2019-03-10T15:11:14.654Z,1324.00
2019-03-10T15:12:14.654Z,1216.00
2019-03-10T15:13:14.626Z,1136.00
2019-03-10T15:14:14.633Z,1168.00
2019-03-10T15:15:22.458Z,916.00
2019-03-10T15:16:15.638Z,556.00
2019-03-10T15:17:14.584Z,392.00
2019-03-10T15:18:14.579Z,384.00
2019-03-10T15:19:14.582Z,524.00
2019-03-10T15:20:14.548Z,816.00
2019-03-10T15:21:14.539Z,920.00
2019-03-10T15:22:14.556Z,872.00
2019-03-10T15:23:14.523Z,764.00
2019-03-10T15:24:14.556Z,708.00
2019-03-10T15:25:14.498Z,564.00
2019-03-10T15:26:14.492Z,556.00
2019-03-10T15:27:22.988Z,472.00
2019-03-10T15:28:15.489Z,336.00
2019-03-10T15:29:14.446Z,244.00
2019-03-10T15:30:14.471Z,200.00
2019-03-10T15:31:14.443Z,192.00
2019-03-10T15:32:14.422Z,184.00
2019-03-10T15:33:14.409Z,148.00
2019-03-10T15:34:14.435Z,108.00
2019-03-10T15:35:14.383Z,88.00
2019-03-10T15:36:20.408Z,108.00
2019-03-10T15:37:14.362Z,132.00
2019-03-10T15:38:14.351Z,136.00
2019-03-10T15:39:14.366Z,204.00
2019-03-10T15:40:14.325Z,424.00
2019-03-10T15:41:14.340Z,768.00
2019-03-10T15:42:14.298Z,1272.00
2019-03-10T15:43:14.291Z,1380.00
2019-03-10T15:44:14.276Z,1352.00
2019-03-10T15:45:14.291Z,1284.00
2019-03-10T15:46:14.252Z,1084.00
2019-03-10T15:47:14.306Z,704.00
2019-03-10T15:48:14.240Z,632.00
2019-03-10T15:49:14.224Z,592.00
2019-03-10T15:50:14.212Z,696.00
2019-03-10T15:51:14.239Z,536.00
2019-03-10T15:52:14.208Z,464.00
2019-03-10T15:53:14.177Z,528.00
2019-03-10T15:54:14.172Z,748.00
2019-03-10T15:55:14.161Z,724.00
2019-03-10T15:56:14.151Z,564.00
2019-03-10T15:57:14.169Z,460.00
2019-03-10T15:58:14.124Z,396.00
2019-03-10T15:59:14.111Z,348.00
2019-03-10T16:00:14.102Z,344.00
2019-03-10T16:01:14.094Z,348.00
2019-03-10T16:02:14.110Z,368.00
2019-03-10T16:03:14.095Z,396.00
2019-03-10T16:04:14.058Z,508.00
2019-03-10T16:05:14.046Z,560.00
2019-03-10T16:06:14.035Z,572.00
2019-03-10T16:07:14.024Z,684.00
2019-03-10T16:08:14.020Z,644.00
2019-03-10T16:09:14.002Z,568.00
2019-03-10T16:10:14.000Z,472.00
2019-03-10T16:11:13.975Z,416.00
2019-03-10T16:12:13.970Z,368.00
2019-03-10T16:13:13.975Z,324.00
2019-03-10T16:14:13.945Z,260.00
2019-03-10T16:15:13.932Z,236.00
2019-03-10T16:16:13.950Z,236.00
2019-03-10T16:17:13.917Z,228.00
2019-03-10T16:18:13.896Z,204.00
2019-03-10T16:19:13.903Z,152.00
2019-03-10T16:20:13.874Z,124.00
2019-03-10T16:21:13.865Z,128.00
2019-03-10T16:22:13.874Z,92.00
2019-03-10T16:23:13.837Z,80.00
2019-03-10T16:24:13.949Z,88.00
2019-03-10T16:25:13.816Z,84.00
2019-03-10T16:26:13.812Z,76.00
2019-03-10T16:27:13.794Z,72.00
2019-03-10T16:28:13.811Z,64.00
2019-03-10T16:29:13.769Z,84.00
2019-03-10T16:30:13.875Z,104.00
2019-03-10T16:31:13.757Z,96.00
2019-03-10T16:32:13.745Z,100.00
2019-03-10T16:33:13.735Z,116.00
2019-03-10T16:34:13.750Z,124.00
2019-03-10T16:35:13.736Z,104.00
2019-03-10T16:36:13.696Z,96.00
2019-03-10T16:37:13.689Z,96.00
2019-03-10T16:38:13.675Z,108.00
2019-03-10T16:39:13.656Z,116.00
2019-03-10T16:40:13.670Z,100.00
2019-03-10T16:41:13.656Z,108.00
2019-03-10T16:42:13.883Z,104.00
2019-03-10T16:43:13.620Z,104.00
2019-03-10T16:44:13.605Z,96.00
2019-03-10T16:45:13.593Z,92.00
2019-03-10T16:46:13.609Z,92.00
2019-03-10T16:47:13.595Z,84.00
2019-03-10T16:48:14.489Z,80.00
2019-03-10T16:49:13.553Z,72.00
2019-03-10T16:50:13.535Z,56.00
2019-03-10T16:51:13.557Z,36.00
2019-03-10T16:52:13.523Z,16.00
2019-03-10T16:53:13.522Z,12.00
2019-03-10T16:54:13.490Z,16.00
2019-03-10T16:55:13.476Z,16.00
2019-03-10T16:56:13.471Z,16.00
2019-03-10T16:57:13.478Z,24.00
2019-03-10T16:58:13.444Z,32.00
2019-03-10T16:59:13.459Z,32.00
2019-03-10T17:00:13.419Z,32.00
2019-03-10T17:01:13.419Z,28.00
2019-03-10T17:02:13.428Z,32.00
2019-03-10T17:03:13.393Z,28.00
2019-03-10T17:04:13.375Z,24.00
2019-03-10T17:05:15.531Z,24.00
2019-03-10T17:06:13.353Z,20.00
2019-03-10T17:07:13.348Z,16.00
2019-03-10T17:08:13.345Z,16.00
2019-03-10T17:09:13.325Z,12.00
2019-03-10T17:10:13.330Z,16.00
2019-03-10T17:11:13.325Z,16.00
2019-03-10T17:12:13.344Z,16.00
2019-03-10T17:13:13.301Z,12.00
2019-03-10T17:14:13.266Z,16.00
2019-03-10T17:15:13.253Z,16.00
2019-03-10T17:16:13.245Z,12.00
2019-03-10T17:17:13.262Z,12.00
2019-03-10T17:18:13.220Z,8.00
2019-03-10T17:19:13.237Z,8.00
2019-03-10T17:20:13.208Z,4.00
2019-03-10T17:21:13.190Z,4.00
2019-03-10T17:22:13.172Z,4.00
2019-03-10T17:23:13.187Z,4.00
2019-03-10T17:24:13.165Z,4.00
2019-03-10T17:25:13.160Z,0.00
2019-03-10T17:26:13.133Z,4.00
2019-03-10T17:27:13.121Z,0.00
2019-03-10T17:28:13.112Z,4.00
2019-03-10T17:29:13.153Z,0.00
2019-03-10T17:30:13.086Z,0.00
2019-03-10T17:31:13.083Z,0.00
2019-03-10T17:32:13.062Z,0.00
2019-03-10T17:33:13.055Z,0.00
2019-03-10T17:34:13.047Z,0.00
2019-03-10T17:35:13.072Z,0.00
2019-03-10T17:36:13.021Z,0.00
2019-03-10T17:37:13.005Z,0.00
2019-03-10T17:38:12.999Z,0.00
2019-03-10T17:39:12.984Z,0.00
2019-03-10T17:40:13.001Z,0.00
2019-03-10T17:41:12.991Z,0.00
2019-03-10T17:42:12.950Z,0.00
2019-03-10T17:43:12.945Z,0.00
2019-03-10T17:44:12.933Z,0.00
2019-03-10T17:45:12.919Z,0.00
2019-03-10T17:46:12.934Z,0.00
2019-03-10T17:47:12.918Z,0.00
2019-03-10T17:48:13.226Z,0.00
2019-03-10T17:49:12.870Z,0.00
2019-03-10T17:50:12.867Z,0.00
2019-03-10T17:51:12.867Z,0.00
2019-03-10T17:52:14.714Z,0.00
2019-03-10T17:53:12.851Z,0.00
2019-03-10T17:54:12.817Z,0.00
2019-03-10T17:55:12.813Z,0.00
2019-03-10T17:56:12.800Z,0.00
2019-03-10T17:57:12.798Z,0.00
2019-03-10T17:58:12.772Z,0.00
2019-03-10T17:59:12.781Z,0.00
2019-03-10T18:00:12.759Z,0.00
2019-03-10T18:01:12.748Z,0.00
2019-03-10T18:02:12.772Z,0.00
2019-03-10T18:03:12.722Z,0.00
2019-03-10T18:04:12.713Z,0.00
2019-03-10T18:05:12.824Z,0.00
2019-03-10T18:06:12.708Z,0.00
2019-03-10T18:07:12.681Z,0.00
2019-03-10T18:08:12.700Z,0.00
2019-03-10T18:09:12.655Z,0.00
2019-03-10T18:10:12.644Z,0.00
2019-03-10T18:11:12.680Z,0.00
2019-03-10T18:12:12.619Z,0.00
2019-03-10T18:13:12.607Z,0.00
2019-03-10T18:14:12.633Z,0.00
2019-03-10T18:15:12.596Z,0.00
2019-03-10T18:16:12.575Z,0.00
2019-03-10T18:17:12.587Z,0.00
2019-03-10T18:18:12.551Z,0.00
2019-03-10T18:19:12.542Z,0.00
2019-03-10T18:20:12.546Z,0.00
2019-03-10T18:21:12.520Z,0.00
2019-03-10T18:22:12.511Z,0.00
2019-03-10T18:23:12.517Z,0.00
2019-03-10T18:24:12.484Z,0.00
2019-03-10T18:25:12.476Z,0.00
2019-03-10T18:26:12.482Z,0.00
2019-03-10T18:27:12.447Z,0.00
2019-03-10T18:28:12.439Z,0.00
2019-03-10T18:29:12.449Z,0.00
2019-03-10T18:30:12.414Z,0.00
2019-03-10T18:31:12.431Z,0.00
2019-03-10T18:32:12.395Z,0.00
2019-03-10T18:33:12.386Z,0.00
2019-03-10T18:34:12.372Z,0.00
2019-03-10T18:35:12.359Z,0.00
2019-03-10T18:36:12.365Z,0.00
2019-03-10T18:37:12.384Z,0.00
2019-03-10T18:38:12.325Z,0.00
2019-03-10T18:39:12.316Z,0.00
2019-03-10T18:40:12.309Z,0.00
2019-03-10T18:41:12.290Z,0.00
2019-03-10T18:42:12.325Z,0.00
2019-03-10T18:43:12.269Z,0.00
2019-03-10T18:44:12.256Z,0.00
2019-03-10T18:45:12.252Z,0.00
2019-03-10T18:46:12.235Z,0.00
2019-03-10T18:47:12.251Z,0.00
2019-03-10T18:48:12.241Z,0.00
2019-03-10T18:49:12.218Z,0.00
2019-03-10T18:50:12.195Z,0.00
2019-03-10T18:51:12.188Z,0.00
2019-03-10T18:52:12.170Z,0.00
2019-03-10T18:53:12.182Z,0.00
2019-03-10T18:54:12.154Z,0.00
2019-03-10T18:55:12.161Z,0.00
2019-03-10T18:56:12.143Z,0.00
2019-03-10T18:57:12.117Z,0.00
2019-03-10T18:58:12.147Z,0.00
2019-03-10T18:59:12.088Z,0.00
2019-03-10T19:00:12.077Z,0.00
2019-03-10T19:01:12.107Z,0.00
2019-03-10T19:02:12.055Z,0.00
2019-03-10T19:03:12.045Z,0.00
2019-03-10T19:04:12.079Z,0.00
2019-03-10T19:05:12.027Z,0.00
2019-03-10T19:06:12.021Z,0.00
2019-03-10T19:07:12.035Z,0.00
2019-03-10T19:08:12.004Z,0.00
2019-03-10T19:09:11.977Z,0.00
2019-03-10T19:10:12.020Z,0.00
2019-03-10T19:11:11.966Z,0.00
2019-03-10T19:12:11.940Z,0.00
2019-03-10T19:13:11.936Z,0.00
2019-03-10T19:14:11.972Z,0.00
2019-03-10T19:15:11.993Z,0.00
2019-03-10T19:16:11.898Z,0.00
2019-03-10T19:17:11.920Z,0.00
2019-03-10T19:18:11.878Z,0.00
2019-03-10T19:19:11.868Z,0.00
2019-03-10T19:20:11.905Z,0.00
2019-03-10T19:21:11.847Z,0.00
2019-03-10T19:22:11.839Z,0.00
2019-03-10T19:23:11.825Z,0.00
2019-03-10T19:24:11.809Z,0.00
2019-03-10T19:25:11.815Z,0.00
2019-03-10T19:26:11.839Z,0.00
2019-03-10T19:27:11.777Z,0.00
2019-03-10T19:28:11.769Z,0.00
2019-03-10T19:29:11.761Z,0.00
2019-03-10T19:30:11.752Z,0.00
2019-03-10T19:31:11.764Z,0.00
2019-03-10T19:32:11.739Z,0.00
2019-03-10T19:33:11.714Z,0.00
2019-03-10T19:34:11.695Z,0.00
2019-03-10T19:35:11.696Z,0.00
2019-03-10T19:36:11.676Z,0.00
2019-03-10T19:37:11.694Z,0.00
2019-03-10T19:38:11.676Z,0.00
2019-03-10T19:39:11.649Z,0.00
2019-03-10T19:40:11.640Z,0.00
2019-03-10T19:41:11.631Z,0.00
2019-03-10T19:42:11.612Z,0.00
2019-03-10T19:43:11.613Z,0.00
2019-03-10T19:44:11.659Z,0.00
2019-03-10T19:45:11.589Z,0.00
2019-03-10T19:46:11.569Z,0.00
2019-03-10T19:47:11.570Z,0.00
2019-03-10T19:48:11.571Z,0.00
2019-03-10T19:49:11.531Z,0.00
2019-03-10T19:50:12.466Z,0.00
2019-03-10T19:51:11.522Z,0.00
2019-03-10T19:52:11.502Z,0.00
2019-03-10T19:53:11.522Z,0.00
2019-03-10T19:54:11.482Z,0.00
2019-03-10T19:55:11.469Z,0.00
2019-03-10T19:56:11.455Z,0.00
2019-03-10T19:57:11.480Z,0.00
2019-03-10T19:58:11.442Z,0.00
2019-03-10T19:59:11.443Z,0.00
2019-03-10T20:00:11.402Z,0.00
2019-03-10T20:01:11.399Z,0.00
2019-03-10T20:02:11.384Z,0.00
2019-03-10T20:03:11.371Z,0.00
2019-03-10T20:04:11.398Z,0.00
2019-03-10T20:05:11.359Z,0.00
2019-03-10T20:06:11.346Z,0.00
2019-03-10T20:07:11.329Z,0.00
2019-03-10T20:08:11.328Z,0.00
2019-03-10T20:09:11.339Z,0.00
2019-03-10T20:10:11.342Z,0.00
2019-03-10T20:11:11.299Z,0.00
2019-03-10T20:12:11.277Z,0.00
2019-03-10T20:13:11.267Z,0.00
2019-03-10T20:14:11.250Z,0.00
2019-03-10T20:15:11.255Z,0.00
2019-03-10T20:16:11.255Z,0.00
2019-03-10T20:17:11.214Z,0.00
2019-03-10T20:18:11.196Z,0.00
2019-03-10T20:19:11.195Z,0.00
2019-03-10T20:20:11.212Z,0.00
2019-03-10T20:21:11.175Z,0.00
2019-03-10T20:22:11.186Z,0.00
2019-03-10T20:23:11.142Z,0.00
2019-03-10T20:24:11.138Z,0.00
2019-03-10T20:25:11.123Z,0.00
2019-03-10T20:26:11.128Z,0.00
2019-03-10T20:27:11.107Z,0.00
2019-03-10T20:28:11.126Z,0.00
2019-03-10T20:29:11.079Z,0.00
2019-03-10T20:30:11.069Z,0.00
2019-03-10T20:31:11.087Z,0.00
2019-03-10T20:32:14.249Z,0.00
2019-03-10T20:33:11.054Z,0.00
2019-03-10T20:34:11.043Z,0.00
2019-03-10T20:35:11.021Z,0.00
2019-03-10T20:36:11.036Z,0.00
2019-03-10T20:37:11.087Z,0.00
2019-03-10T20:38:10.985Z,0.00
2019-03-10T20:39:10.974Z,0.00
2019-03-10T20:40:10.973Z,0.00
2019-03-10T20:41:10.946Z,0.00
2019-03-10T20:42:12.224Z,0.00
2019-03-10T20:43:10.928Z,0.00
2019-03-10T20:44:10.913Z,0.00
2019-03-10T20:45:10.907Z,0.00
2019-03-10T20:46:10.926Z,0.00
2019-03-10T20:47:12.526Z,0.00
2019-03-10T20:48:10.876Z,0.00
2019-03-10T20:49:10.862Z,0.00
2019-03-10T20:50:10.845Z,0.00
2019-03-10T20:51:10.837Z,0.00
2019-03-10T20:52:10.893Z,0.00
2019-03-10T20:53:10.823Z,0.00
2019-03-10T20:54:10.886Z,0.00
2019-03-10T20:55:10.789Z,0.00
2019-03-10T20:56:10.784Z,0.00
2019-03-10T20:57:10.774Z,0.00
2019-03-10T20:58:10.795Z,0.00
2019-03-10T20:59:10.747Z,0.00
2019-03-10T21:00:10.770Z,0.00
2019-03-10T21:01:10.735Z,0.00
2019-03-10T21:02:10.714Z,0.00
2019-03-10T21:03:10.739Z,0.00
2019-03-10T21:04:10.686Z,0.00
2019-03-10T21:05:10.689Z,0.00
2019-03-10T21:06:10.671Z,0.00
2019-03-10T21:07:10.685Z,0.00
2019-03-10T21:08:10.659Z,0.00
2019-03-10T21:09:10.675Z,0.00
2019-03-10T21:10:10.625Z,0.00
2019-03-10T21:11:12.478Z,0.00
2019-03-10T21:12:10.603Z,0.00
2019-03-10T21:13:10.590Z,0.00
2019-03-10T21:14:10.616Z,0.00
2019-03-10T21:15:10.600Z,0.00
2019-03-10T21:16:10.565Z,0.00
2019-03-10T21:17:10.549Z,0.00
2019-03-10T21:18:10.588Z,0.00
2019-03-10T21:19:10.529Z,0.00
2019-03-10T21:20:10.546Z,0.00
2019-03-10T21:21:10.533Z,0.00
2019-03-10T21:22:10.487Z,0.00
2019-03-10T21:23:10.496Z,0.00
2019-03-10T21:24:10.467Z,0.00
2019-03-10T21:25:10.451Z,0.00
2019-03-10T21:26:10.462Z,0.00
2019-03-10T21:27:10.436Z,0.00
2019-03-10T21:28:10.461Z,0.00
2019-03-10T21:29:10.447Z,0.00
2019-03-10T21:30:10.412Z,0.00
2019-03-10T21:31:10.410Z,0.00
2019-03-10T21:32:10.379Z,0.00
2019-03-10T21:33:10.363Z,0.00
2019-03-10T21:34:10.375Z,0.00
2019-03-10T21:35:17.723Z,0.00
2019-03-10T21:36:11.360Z,0.00
2019-03-10T21:37:10.328Z,0.00
2019-03-10T21:38:10.310Z,0.00
2019-03-10T21:39:10.297Z,0.00
2019-03-10T21:40:10.313Z,0.00
2019-03-10T21:41:14.198Z,0.00
2019-03-10T21:42:10.278Z,0.00
2019-03-10T21:43:10.257Z,0.00
2019-03-10T21:44:10.258Z,0.00
2019-03-10T21:45:10.240Z,0.00
2019-03-10T21:46:10.245Z,0.00
2019-03-10T21:47:10.243Z,0.00
2019-03-10T21:48:10.214Z,0.00
2019-03-10T21:49:10.188Z,0.00
2019-03-10T21:50:10.174Z,0.00
2019-03-10T21:51:10.170Z,0.00
2019-03-10T21:52:10.955Z,0.00
2019-03-10T21:53:10.166Z,0.00
2019-03-10T21:54:10.131Z,0.00
2019-03-10T21:55:10.119Z,0.00
2019-03-10T21:56:10.107Z,0.00
2019-03-10T21:57:10.108Z,0.00
2019-03-10T21:58:37.256Z,0.00
2019-03-10T21:59:10.121Z,0.00
2019-03-10T22:00:10.162Z,0.00
2019-03-10T22:01:10.105Z,0.00
2019-03-10T22:02:10.206Z,0.00
2019-03-10T22:03:10.071Z,0.00
2019-03-10T22:04:10.019Z,0.00
2019-03-10T22:05:10.036Z,0.00
2019-03-10T22:06:09.998Z,0.00
2019-03-10T22:07:10.017Z,0.00
2019-03-10T22:08:10.065Z,0.00
2019-03-10T22:09:09.966Z,0.00
2019-03-10T22:10:09.959Z,0.00
2019-03-10T22:11:09.943Z,0.00
2019-03-10T22:12:09.931Z,0.00
2019-03-10T22:13:09.967Z,0.00
2019-03-10T22:14:20.679Z,0.00
2019-03-10T22:15:09.969Z,0.00
2019-03-10T22:16:09.972Z,0.00
2019-03-10T22:17:09.939Z,0.00
2019-03-10T22:18:10.026Z,0.00
2019-03-10T22:19:09.875Z,0.00
2019-03-10T22:20:09.849Z,0.00
2019-03-10T22:21:09.880Z,0.00
2019-03-10T22:22:09.821Z,0.00
2019-03-10T22:23:09.816Z,0.00
2019-03-10T22:24:24.058Z,0.00
2019-03-10T22:25:13.034Z,0.00
2019-03-10T22:26:09.898Z,0.00
2019-03-10T22:27:09.882Z,0.00
2019-03-10T22:28:09.829Z,0.00
2019-03-10T22:29:09.909Z,0.00
2019-03-10T22:30:09.753Z,0.00
2019-03-10T22:31:09.730Z,0.00
2019-03-10T22:32:09.725Z,0.00
2019-03-10T22:33:09.717Z,0.00
2019-03-10T22:34:09.688Z,0.00
2019-03-10T22:35:09.705Z,0.00
2019-03-10T22:36:09.662Z,0.00
2019-03-10T22:37:20.411Z,0.00
2019-03-10T22:38:09.763Z,0.00
2019-03-10T22:39:09.746Z,0.00
2019-03-10T22:40:09.760Z,0.00
2019-03-10T22:41:09.888Z,0.00
2019-03-10T22:42:09.620Z,0.00
2019-03-10T22:43:09.583Z,0.00
2019-03-10T22:44:09.660Z,0.00
2019-03-10T22:45:09.571Z,0.00
2019-03-10T22:46:09.572Z,0.00
2019-03-10T22:47:19.093Z,0.00
2019-03-10T22:48:09.621Z,0.00
2019-03-10T22:49:09.637Z,0.00
2019-03-10T22:50:09.615Z,0.00
2019-03-10T22:51:20.815Z,0.00